Valls, Spain
Current Conditions -  °F | °C
As of 11:00 AM on Friday 28 Nov 2014 (Local Time) from LERS Reporting Station
Broken Clouds Broken Clouds  
Wind Chill: 64°   Ceiling: 2000
Heat Index: 64°   Visibility: 6mi
Dew Point: 57°   Wind: 12mph
Humidity: 77%   Direction: 140°SE
Pressure: 29.38"   Gusts: NA
Location:  41.29°N, 1.25°E
Report Text: LERS 281000Z 14010KT 080V200 9999 FEW018TCU BKN020 18/14 Q0995
Loading
Personal Weather Stations






























Interactive Weather Map New forecast layout! Learn more

10-Day Weather Forecast

Advertisements
Track Severe Weather on mobile